sensor_id;sensor_type;location;lat;lon;timestamp;temperature;humidity
75088;HTU21D;63664;44.868;40.600;2023-06-24T00:00:27;17.17;79.58
75088;HTU21D;63664;44.868;40.600;2023-06-24T00:02:56;17.15;79.65
75088;HTU21D;63664;44.868;40.600;2023-06-24T00:05:24;17.13;79.67
75088;HTU21D;63664;44.868;40.600;2023-06-24T00:07:50;17.15;79.76
75088;HTU21D;63664;44.868;40.600;2023-06-24T00:10:17;17.17;79.79
75088;HTU21D;63664;44.868;40.600;2023-06-24T00:12:43;17.15;79.88
75088;HTU21D;63664;44.868;40.600;2023-06-24T00:15:11;17.16;79.99
75088;HTU21D;63664;44.868;40.600;2023-06-24T00:17:41;17.14;80.11
75088;HTU21D;63664;44.868;40.600;2023-06-24T00:20:08;17.13;80.19
75088;HTU21D;63664;44.868;40.600;2023-06-24T00:22:38;17.13;80.31
75088;HTU21D;63664;44.868;40.600;2023-06-24T00:25:15;17.11;80.34
75088;HTU21D;63664;44.868;40.600;2023-06-24T00:27:41;17.09;80.58
75088;HTU21D;63664;44.868;40.600;2023-06-24T00:30:12;17.07;80.73
75088;HTU21D;63664;44.868;40.600;2023-06-24T00:32:38;17.09;80.75
75088;HTU21D;63664;44.868;40.600;2023-06-24T00:35:05;17.08;80.85
75088;HTU21D;63664;44.868;40.600;2023-06-24T00:37:32;17.03;80.94
75088;HTU21D;63664;44.868;40.600;2023-06-24T00:39:58;17.03;81.10
75088;HTU21D;63664;44.868;40.600;2023-06-24T00:42:27;17.00;81.20
75088;HTU21D;63664;44.868;40.600;2023-06-24T00:44:53;17.00;81.30
75088;HTU21D;63664;44.868;40.600;2023-06-24T00:47:19;17.02;81.36
75088;HTU21D;63664;44.868;40.600;2023-06-24T00:49:45;16.96;81.38
75088;HTU21D;63664;44.868;40.600;2023-06-24T00:52:14;16.91;81.59
75088;HTU21D;63664;44.868;40.600;2023-06-24T00:54:45;16.89;80.96
75088;HTU21D;63664;44.868;40.600;2023-06-24T00:57:13;16.87;81.04
75088;HTU21D;63664;44.868;40.600;2023-06-24T00:59:41;16.84;81.29
75088;HTU21D;63664;44.868;40.600;2023-06-24T01:02:10;16.81;81.35
75088;HTU21D;63664;44.868;40.600;2023-06-24T01:04:39;16.79;81.52
75088;HTU21D;63664;44.868;40.600;2023-06-24T01:07:06;16.76;81.59
75088;HTU21D;63664;44.868;40.600;2023-06-24T01:09:32;16.75;81.67
75088;HTU21D;63664;44.868;40.600;2023-06-24T01:11:58;16.71;81.75
75088;HTU21D;63664;44.868;40.600;2023-06-24T01:14:25;16.69;81.82
75088;HTU21D;63664;44.868;40.600;2023-06-24T01:17:49;16.63;81.94
75088;HTU21D;63664;44.868;40.600;2023-06-24T01:20:11;16.60;81.93
75088;HTU21D;63664;44.868;40.600;2023-06-24T01:23:13;16.57;81.97
75088;HTU21D;63664;44.868;40.600;2023-06-24T01:28:51;16.50;81.90
75088;HTU21D;63664;44.868;40.600;2023-06-24T01:37:37;16.45;82.04
75088;HTU21D;63664;44.868;40.600;2023-06-24T01:39:46;16.43;82.02
75088;HTU21D;63664;44.868;40.600;2023-06-24T01:42:14;16.40;82.07
75088;HTU21D;63664;44.868;40.600;2023-06-24T01:44:44;16.36;82.20
75088;HTU21D;63664;44.868;40.600;2023-06-24T01:47:11;16.35;82.23
75088;HTU21D;63664;44.868;40.600;2023-06-24T01:49:45;16.30;82.32
75088;HTU21D;63664;44.868;40.600;2023-06-24T01:52:13;16.25;82.60
75088;HTU21D;63664;44.868;40.600;2023-06-24T01:54:41;16.19;82.84
75088;HTU21D;63664;44.868;40.600;2023-06-24T01:57:09;16.17;83.01
75088;HTU21D;63664;44.868;40.600;2023-06-24T01:59:39;16.17;83.18
75088;HTU21D;63664;44.868;40.600;2023-06-24T02:02:07;16.14;83.28
75088;HTU21D;63664;44.868;40.600;2023-06-24T02:04:35;16.11;83.48
75088;HTU21D;63664;44.868;40.600;2023-06-24T02:07:02;16.10;83.66
75088;HTU21D;63664;44.868;40.600;2023-06-24T02:09:30;16.14;83.71
75088;HTU21D;63664;44.868;40.600;2023-06-24T02:12:01;16.15;83.71
75088;HTU21D;63664;44.868;40.600;2023-06-24T02:14:28;16.18;83.76
75088;HTU21D;63664;44.868;40.600;2023-06-24T02:16:58;16.18;83.83
75088;HTU21D;63664;44.868;40.600;2023-06-24T02:19:27;16.16;83.28
75088;HTU21D;63664;44.868;40.600;2023-06-24T02:21:58;16.15;83.36
75088;HTU21D;63664;44.868;40.600;2023-06-24T02:24:27;16.14;83.68
75088;HTU21D;63664;44.868;40.600;2023-06-24T02:26:56;16.14;83.89
75088;HTU21D;63664;44.868;40.600;2023-06-24T02:29:26;16.17;83.97
75088;HTU21D;63664;44.868;40.600;2023-06-24T02:31:55;16.20;84.07
75088;HTU21D;63664;44.868;40.600;2023-06-24T02:34:25;16.24;84.10
75088;HTU21D;63664;44.868;40.600;2023-06-24T02:36:52;16.26;84.07
75088;HTU21D;63664;44.868;40.600;2023-06-24T02:39:19;16.28;84.18
75088;HTU21D;63664;44.868;40.600;2023-06-24T02:41:51;16.29;84.34
75088;HTU21D;63664;44.868;40.600;2023-06-24T02:44:18;16.32;84.40
75088;HTU21D;63664;44.868;40.600;2023-06-24T02:46:46;16.33;84.58
75088;HTU21D;63664;44.868;40.600;2023-06-24T02:49:15;16.39;84.66
75088;HTU21D;63664;44.868;40.600;2023-06-24T02:51:45;16.44;84.67
75088;HTU21D;63664;44.868;40.600;2023-06-24T02:54:11;16.49;84.65
75088;HTU21D;63664;44.868;40.600;2023-06-24T02:56:59;16.52;84.63
75088;HTU21D;63664;44.868;40.600;2023-06-24T02:59:40;16.57;84.64
75088;HTU21D;63664;44.868;40.600;2023-06-24T03:02:11;16.63;84.70
75088;HTU21D;63664;44.868;40.600;2023-06-24T03:04:38;16.66;84.71
75088;HTU21D;63664;44.868;40.600;2023-06-24T03:07:06;16.71;84.75
75088;HTU21D;63664;44.868;40.600;2023-06-24T03:09:39;16.72;84.74
75088;HTU21D;63664;44.868;40.600;2023-06-24T03:12:06;16.73;84.84
75088;HTU21D;63664;44.868;40.600;2023-06-24T03:14:45;16.76;84.87
75088;HTU21D;63664;44.868;40.600;2023-06-24T03:17:12;16.78;84.96
75088;HTU21D;63664;44.868;40.600;2023-06-24T03:19:39;16.80;85.10
75088;HTU21D;63664;44.868;40.600;2023-06-24T03:22:05;16.86;85.16
75088;HTU21D;63664;44.868;40.600;2023-06-24T03:24:33;16.91;85.19
75088;HTU21D;63664;44.868;40.600;2023-06-24T03:26:59;16.96;85.16
75088;HTU21D;63664;44.868;40.600;2023-06-24T03:29:36;17.02;85.16
75088;HTU21D;63664;44.868;40.600;2023-06-24T03:32:13;17.09;85.13
75088;HTU21D;63664;44.868;40.600;2023-06-24T03:34:40;17.16;85.01
75088;HTU21D;63664;44.868;40.600;2023-06-24T03:37:09;17.23;85.00
75088;HTU21D;63664;44.868;40.600;2023-06-24T03:39:39;17.29;85.00
75088;HTU21D;63664;44.868;40.600;2023-06-24T03:42:06;17.37;84.95
75088;HTU21D;63664;44.868;40.600;2023-06-24T03:44:32;17.47;84.92
75088;HTU21D;63664;44.868;40.600;2023-06-24T03:46:59;17.55;84.79
75088;HTU21D;63664;44.868;40.600;2023-06-24T03:49:26;17.64;84.59
75088;HTU21D;63664;44.868;40.600;2023-06-24T03:51:52;17.75;84.45
75088;HTU21D;63664;44.868;40.600;2023-06-24T03:54:19;17.83;84.37
75088;HTU21D;63664;44.868;40.600;2023-06-24T03:56:47;17.91;84.32
75088;HTU21D;63664;44.868;40.600;2023-06-24T03:59:14;18.00;84.18
75088;HTU21D;63664;44.868;40.600;2023-06-24T04:01:44;18.08;84.00
75088;HTU21D;63664;44.868;40.600;2023-06-24T04:04:10;18.14;83.46
75088;HTU21D;63664;44.868;40.600;2023-06-24T04:06:36;18.22;83.26
75088;HTU21D;63664;44.868;40.600;2023-06-24T04:09:05;18.28;83.36
75088;HTU21D;63664;44.868;40.600;2023-06-24T04:11:33;18.35;83.23
75088;HTU21D;63664;44.868;40.600;2023-06-24T04:14:00;18.43;83.09
75088;HTU21D;63664;44.868;40.600;2023-06-24T04:16:27;18.52;82.90
75088;HTU21D;63664;44.868;40.600;2023-06-24T04:18:53;18.59;82.73
75088;HTU21D;63664;44.868;40.600;2023-06-24T04:21:20;18.67;82.71
75088;HTU21D;63664;44.868;40.600;2023-06-24T04:23:46;18.74;82.57
75088;HTU21D;63664;44.868;40.600;2023-06-24T04:26:13;18.81;82.44
75088;HTU21D;63664;44.868;40.600;2023-06-24T04:28:42;18.87;82.38
75088;HTU21D;63664;44.868;40.600;2023-06-24T04:31:08;18.96;82.17
75088;HTU21D;63664;44.868;40.600;2023-06-24T04:33:34;19.03;82.10
75088;HTU21D;63664;44.868;40.600;2023-06-24T04:36:04;19.12;82.05
75088;HTU21D;63664;44.868;40.600;2023-06-24T04:38:32;19.18;81.97
75088;HTU21D;63664;44.868;40.600;2023-06-24T04:41:00;19.28;81.84
75088;HTU21D;63664;44.868;40.600;2023-06-24T04:43:27;19.36;81.76
75088;HTU21D;63664;44.868;40.600;2023-06-24T04:45:54;19.45;81.65
75088;HTU21D;63664;44.868;40.600;2023-06-24T04:48:23;19.53;81.58
75088;HTU21D;63664;44.868;40.600;2023-06-24T04:50:50;19.60;81.50
75088;HTU21D;63664;44.868;40.600;2023-06-24T04:53:19;19.69;81.01
75088;HTU21D;63664;44.868;40.600;2023-06-24T04:55:48;19.80;80.73
75088;HTU21D;63664;44.868;40.600;2023-06-24T04:58:19;19.87;80.77
75088;HTU21D;63664;44.868;40.600;2023-06-24T05:00:46;19.96;80.58
75088;HTU21D;63664;44.868;40.600;2023-06-24T05:03:12;20.07;80.34
75088;HTU21D;63664;44.868;40.600;2023-06-24T05:05:39;20.18;80.06
75088;HTU21D;63664;44.868;40.600;2023-06-24T05:08:05;20.33;79.88
75088;HTU21D;63664;44.868;40.600;2023-06-24T05:10:32;20.47;79.30
75088;HTU21D;63664;44.868;40.600;2023-06-24T05:12:58;20.62;78.82
75088;HTU21D;63664;44.868;40.600;2023-06-24T05:15:24;20.76;78.37
75088;HTU21D;63664;44.868;40.600;2023-06-24T05:17:51;20.92;77.81
75088;HTU21D;63664;44.868;40.600;2023-06-24T05:20:17;21.07;77.11
75088;HTU21D;63664;44.868;40.600;2023-06-24T05:22:47;21.24;76.67
75088;HTU21D;63664;44.868;40.600;2023-06-24T05:25:14;21.44;76.01
75088;HTU21D;63664;44.868;40.600;2023-06-24T05:27:40;21.60;75.59
75088;HTU21D;63664;44.868;40.600;2023-06-24T05:30:13;21.80;75.37
75088;HTU21D;63664;44.868;40.600;2023-06-24T05:32:40;22.03;74.70
75088;HTU21D;63664;44.868;40.600;2023-06-24T05:35:09;22.20;74.10
75088;HTU21D;63664;44.868;40.600;2023-06-24T05:37:36;22.39;73.41
75088;HTU21D;63664;44.868;40.600;2023-06-24T05:40:02;22.55;73.06
75088;HTU21D;63664;44.868;40.600;2023-06-24T05:42:31;22.73;72.44
75088;HTU21D;63664;44.868;40.600;2023-06-24T05:44:57;22.90;71.73
75088;HTU21D;63664;44.868;40.600;2023-06-24T05:47:23;23.07;71.35
75088;HTU21D;63664;44.868;40.600;2023-06-24T05:49:50;23.25;70.81
75088;HTU21D;63664;44.868;40.600;2023-06-24T05:52:16;23.47;70.02
75088;HTU21D;63664;44.868;40.600;2023-06-24T05:54:46;23.67;69.52
75088;HTU21D;63664;44.868;40.600;2023-06-24T05:57:13;23.89;68.84
75088;HTU21D;63664;44.868;40.600;2023-06-24T05:59:39;24.03;67.97
75088;HTU21D;63664;44.868;40.600;2023-06-24T06:02:11;24.17;67.49
75088;HTU21D;63664;44.868;40.600;2023-06-24T06:04:41;24.39;67.08
75088;HTU21D;63664;44.868;40.600;2023-06-24T06:07:08;24.63;65.90
75088;HTU21D;63664;44.868;40.600;2023-06-24T06:09:35;24.85;64.92
75088;HTU21D;63664;44.868;40.600;2023-06-24T06:12:01;25.07;63.73
75088;HTU21D;63664;44.868;40.600;2023-06-24T06:14:27;25.23;62.91
75088;HTU21D;63664;44.868;40.600;2023-06-24T06:16:54;25.38;62.31
75088;HTU21D;63664;44.868;40.600;2023-06-24T06:19:24;25.57;61.63
75088;HTU21D;63664;44.868;40.600;2023-06-24T06:21:50;25.78;62.02
75088;HTU21D;63664;44.868;40.600;2023-06-24T06:24:17;25.90;60.86
75088;HTU21D;63664;44.868;40.600;2023-06-24T06:26:45;26.04;60.25
75088;HTU21D;63664;44.868;40.600;2023-06-24T06:29:12;26.18;59.57
75088;HTU21D;63664;44.868;40.600;2023-06-24T06:31:38;26.34;58.90
75088;HTU21D;63664;44.868;40.600;2023-06-24T06:34:08;26.53;57.99
75088;HTU21D;63664;44.868;40.600;2023-06-24T06:36:34;26.82;58.48
75088;HTU21D;63664;44.868;40.600;2023-06-24T06:39:03;26.98;56.87
75088;HTU21D;63664;44.868;40.600;2023-06-24T06:41:29;27.16;56.06
75088;HTU21D;63664;44.868;40.600;2023-06-24T06:43:55;27.34;55.63
75088;HTU21D;63664;44.868;40.600;2023-06-24T06:46:21;27.56;54.99
75088;HTU21D;63664;44.868;40.600;2023-06-24T06:48:48;27.79;53.76
75088;HTU21D;63664;44.868;40.600;2023-06-24T06:51:14;27.94;53.01
75088;HTU21D;63664;44.868;40.600;2023-06-24T06:53:41;28.03;51.92
75088;HTU21D;63664;44.868;40.600;2023-06-24T06:56:07;28.13;51.53
75088;HTU21D;63664;44.868;40.600;2023-06-24T06:58:37;28.24;51.01
75088;HTU21D;63664;44.868;40.600;2023-06-24T07:01:04;28.39;50.49
75088;HTU21D;63664;44.868;40.600;2023-06-24T07:03:31;28.58;49.92
75088;HTU21D;63664;44.868;40.600;2023-06-24T07:06:00;28.74;49.27
75088;HTU21D;63664;44.868;40.600;2023-06-24T07:08:28;28.94;48.28
75088;HTU21D;63664;44.868;40.600;2023-06-24T07:10:57;29.05;47.72
75088;HTU21D;63664;44.868;40.600;2023-06-24T07:13:26;29.18;46.64
75088;HTU21D;63664;44.868;40.600;2023-06-24T07:15:52;29.19;46.47
75088;HTU21D;63664;44.868;40.600;2023-06-24T07:18:18;29.35;45.96
75088;HTU21D;63664;44.868;40.600;2023-06-24T07:20:45;29.52;44.89
75088;HTU21D;63664;44.868;40.600;2023-06-24T07:23:11;29.62;44.51
75088;HTU21D;63664;44.868;40.600;2023-06-24T07:25:37;29.85;43.53
75088;HTU21D;63664;44.868;40.600;2023-06-24T07:28:04;30.00;43.04
75088;HTU21D;63664;44.868;40.600;2023-06-24T07:30:30;30.10;42.50
75088;HTU21D;63664;44.868;40.600;2023-06-24T07:32:56;30.20;42.19
75088;HTU21D;63664;44.868;40.600;2023-06-24T07:35:24;30.28;41.84
75088;HTU21D;63664;44.868;40.600;2023-06-24T07:37:53;30.37;41.43
75088;HTU21D;63664;44.868;40.600;2023-06-24T07:40:19;30.39;41.66
75088;HTU21D;63664;44.868;40.600;2023-06-24T07:42:48;30.42;41.22
75088;HTU21D;63664;44.868;40.600;2023-06-24T07:45:14;30.39;40.93
75088;HTU21D;63664;44.868;40.600;2023-06-24T07:47:41;30.48;40.81
75088;HTU21D;63664;44.868;40.600;2023-06-24T07:50:07;30.68;40.08
75088;HTU21D;63664;44.868;40.600;2023-06-24T07:52:39;30.93;39.77
75088;HTU21D;63664;44.868;40.600;2023-06-24T07:55:06;31.09;39.24
75088;HTU21D;63664;44.868;40.600;2023-06-24T07:57:32;31.25;38.51
75088;HTU21D;63664;44.868;40.600;2023-06-24T07:59:58;31.43;37.88
75088;HTU21D;63664;44.868;40.600;2023-06-24T08:02:25;31.52;37.63
75088;HTU21D;63664;44.868;40.600;2023-06-24T08:04:52;31.58;37.38
75088;HTU21D;63664;44.868;40.600;2023-06-24T08:07:18;31.58;37.23
75088;HTU21D;63664;44.868;40.600;2023-06-24T08:09:47;31.53;37.57
75088;HTU21D;63664;44.868;40.600;2023-06-24T08:12:13;31.76;37.06
75088;HTU21D;63664;44.868;40.600;2023-06-24T08:14:42;31.93;36.86
75088;HTU21D;63664;44.868;40.600;2023-06-24T08:17:08;32.04;36.73
75088;HTU21D;63664;44.868;40.600;2023-06-24T08:19:34;32.04;36.20
75088;HTU21D;63664;44.868;40.600;2023-06-24T08:22:01;32.01;36.32
75088;HTU21D;63664;44.868;40.600;2023-06-24T08:24:27;32.24;36.23
75088;HTU21D;63664;44.868;40.600;2023-06-24T08:26:55;32.42;35.75
75088;HTU21D;63664;44.868;40.600;2023-06-24T08:29:24;32.55;35.01
75088;HTU21D;63664;44.868;40.600;2023-06-24T08:31:50;32.67;34.57
75088;HTU21D;63664;44.868;40.600;2023-06-24T08:34:16;32.74;34.82
75088;HTU21D;63664;44.868;40.600;2023-06-24T08:36:46;32.97;34.38
75088;HTU21D;63664;44.868;40.600;2023-06-24T08:39:12;33.13;33.74
75088;HTU21D;63664;44.868;40.600;2023-06-24T08:41:39;33.03;33.74
75088;HTU21D;63664;44.868;40.600;2023-06-24T08:44:05;33.05;33.87
75088;HTU21D;63664;44.868;40.600;2023-06-24T08:46:31;33.19;33.76
75088;HTU21D;63664;44.868;40.600;2023-06-24T08:51:53;33.47;33.34
75088;HTU21D;63664;44.868;40.600;2023-06-24T08:54:22;33.59;32.82
75088;HTU21D;63664;44.868;40.600;2023-06-24T08:56:49;33.57;32.94
75088;HTU21D;63664;44.868;40.600;2023-06-24T08:59:17;33.73;32.95
75088;HTU21D;63664;44.868;40.600;2023-06-24T09:01:52;33.82;32.48
75088;HTU21D;63664;44.868;40.600;2023-06-24T09:04:18;33.75;32.27
75088;HTU21D;63664;44.868;40.600;2023-06-24T09:06:44;33.59;32.48
75088;HTU21D;63664;44.868;40.600;2023-06-24T09:09:20;33.67;32.27
75088;HTU21D;63664;44.868;40.600;2023-06-24T09:11:55;33.90;32.09
75088;HTU21D;63664;44.868;40.600;2023-06-24T09:14:22;34.14;31.76
75088;HTU21D;63664;44.868;40.600;2023-06-24T09:19:27;34.59;31.24
75088;HTU21D;63664;44.868;40.600;2023-06-24T09:21:56;34.67;31.38
75088;HTU21D;63664;44.868;40.600;2023-06-24T09:24:32;34.74;31.43
75088;HTU21D;63664;44.868;40.600;2023-06-24T09:26:58;34.85;31.02
75088;HTU21D;63664;44.868;40.600;2023-06-24T09:29:31;34.57;31.02
75088;HTU21D;63664;44.868;40.600;2023-06-24T09:31:59;34.53;30.96
75088;HTU21D;63664;44.868;40.600;2023-06-24T09:34:28;34.47;30.76
75088;HTU21D;63664;44.868;40.600;2023-06-24T09:36:56;34.49;30.50
75088;HTU21D;63664;44.868;40.600;2023-06-24T09:39:24;34.56;30.87
75088;HTU21D;63664;44.868;40.600;2023-06-24T09:42:01;34.52;30.71
75088;HTU21D;63664;44.868;40.600;2023-06-24T09:44:28;34.52;30.53
75088;HTU21D;63664;44.868;40.600;2023-06-24T09:47:02;34.45;30.77
75088;HTU21D;63664;44.868;40.600;2023-06-24T09:49:29;34.60;30.59
75088;HTU21D;63664;44.868;40.600;2023-06-24T09:51:58;34.68;30.23
75088;HTU21D;63664;44.868;40.600;2023-06-24T09:54:29;34.74;30.41
75088;HTU21D;63664;44.868;40.600;2023-06-24T09:57:01;34.73;29.90
75088;HTU21D;63664;44.868;40.600;2023-06-24T09:59:31;34.73;29.94
75088;HTU21D;63664;44.868;40.600;2023-06-24T10:02:00;34.86;29.64
75088;HTU21D;63664;44.868;40.600;2023-06-24T10:04:28;35.00;29.53
75088;HTU21D;63664;44.868;40.600;2023-06-24T10:06:54;35.06;29.46
75088;HTU21D;63664;44.868;40.600;2023-06-24T10:09:28;34.99;29.32
75088;HTU21D;63664;44.868;40.600;2023-06-24T10:11:54;34.77;29.55
75088;HTU21D;63664;44.868;40.600;2023-06-24T10:14:24;34.65;29.68
75088;HTU21D;63664;44.868;40.600;2023-06-24T10:17:04;34.59;29.79
75088;HTU21D;63664;44.868;40.600;2023-06-24T10:19:43;34.41;29.93
75088;HTU21D;63664;44.868;40.600;2023-06-24T10:22:13;34.30;30.20
75088;HTU21D;63664;44.868;40.600;2023-06-24T10:24:41;34.38;30.25
75088;HTU21D;63664;44.868;40.600;2023-06-24T10:27:09;34.70;30.03
75088;HTU21D;63664;44.868;40.600;2023-06-24T10:29:45;34.97;29.29
75088;HTU21D;63664;44.868;40.600;2023-06-24T10:32:13;34.99;29.67
75088;HTU21D;63664;44.868;40.600;2023-06-24T10:34:43;35.04;29.21
75088;HTU21D;63664;44.868;40.600;2023-06-24T10:37:13;34.90;29.09
75088;HTU21D;63664;44.868;40.600;2023-06-24T10:39:52;35.03;28.87
75088;HTU21D;63664;44.868;40.600;2023-06-24T10:42:39;35.18;28.82
75088;HTU21D;63664;44.868;40.600;2023-06-24T10:47:41;35.12;28.58
75088;HTU21D;63664;44.868;40.600;2023-06-24T10:50:23;35.07;28.68
75088;HTU21D;63664;44.868;40.600;2023-06-24T10:52:51;35.06;29.04
75088;HTU21D;63664;44.868;40.600;2023-06-24T10:55:23;35.19;28.77
75088;HTU21D;63664;44.868;40.600;2023-06-24T10:57:51;35.29;28.38
75088;HTU21D;63664;44.868;40.600;2023-06-24T11:00:20;35.33;28.52
75088;HTU21D;63664;44.868;40.600;2023-06-24T11:02:47;35.37;28.49
75088;HTU21D;63664;44.868;40.600;2023-06-24T11:05:13;35.45;28.02
75088;HTU21D;63664;44.868;40.600;2023-06-24T11:07:40;35.48;27.71
75088;HTU21D;63664;44.868;40.600;2023-06-24T11:10:12;35.57;28.50
75088;HTU21D;63664;44.868;40.600;2023-06-24T11:12:43;35.47;28.38
75088;HTU21D;63664;44.868;40.600;2023-06-24T11:15:11;35.30;28.36
75088;HTU21D;63664;44.868;40.600;2023-06-24T11:17:41;35.21;28.07
75088;HTU21D;63664;44.868;40.600;2023-06-24T11:20:11;35.03;28.32
75088;HTU21D;63664;44.868;40.600;2023-06-24T11:22:40;35.04;28.51
75088;HTU21D;63664;44.868;40.600;2023-06-24T11:25:20;35.00;27.84
75088;HTU21D;63664;44.868;40.600;2023-06-24T11:27:51;34.84;27.72
75088;HTU21D;63664;44.868;40.600;2023-06-24T11:30:22;34.74;28.09
75088;HTU21D;63664;44.868;40.600;2023-06-24T11:32:51;34.84;28.55
75088;HTU21D;63664;44.868;40.600;2023-06-24T11:35:19;34.64;28.24
75088;HTU21D;63664;44.868;40.600;2023-06-24T11:37:47;34.56;28.32
75088;HTU21D;63664;44.868;40.600;2023-06-24T11:40:16;34.45;28.07
75088;HTU21D;63664;44.868;40.600;2023-06-24T11:42:45;34.41;27.99
75088;HTU21D;63664;44.868;40.600;2023-06-24T11:45:20;34.41;27.94
75088;HTU21D;63664;44.868;40.600;2023-06-24T11:47:47;34.51;27.81
75088;HTU21D;63664;44.868;40.600;2023-06-24T11:50:17;34.51;28.00
75088;HTU21D;63664;44.868;40.600;2023-06-24T11:52:48;34.61;28.00
75088;HTU21D;63664;44.868;40.600;2023-06-24T11:55:19;34.80;28.31
75088;HTU21D;63664;44.868;40.600;2023-06-24T11:57:52;34.56;28.43
75088;HTU21D;63664;44.868;40.600;2023-06-24T12:00:23;34.48;28.26
75088;HTU21D;63664;44.868;40.600;2023-06-24T12:02:57;34.50;27.96
75088;HTU21D;63664;44.868;40.600;2023-06-24T12:05:27;34.27;28.10
75088;HTU21D;63664;44.868;40.600;2023-06-24T12:07:55;34.24;28.23
75088;HTU21D;63664;44.868;40.600;2023-06-24T12:10:23;34.23;28.17
75088;HTU21D;63664;44.868;40.600;2023-06-24T12:12:50;34.36;27.84
75088;HTU21D;63664;44.868;40.600;2023-06-24T12:15:16;34.45;27.78
75088;HTU21D;63664;44.868;40.600;2023-06-24T12:17:43;34.48;27.58
75088;HTU21D;63664;44.868;40.600;2023-06-24T12:20:09;34.48;27.35
75088;HTU21D;63664;44.868;40.600;2023-06-24T12:22:36;34.27;27.31
75088;HTU21D;63664;44.868;40.600;2023-06-24T12:25:03;34.12;27.45
75088;HTU21D;63664;44.868;40.600;2023-06-24T12:27:29;34.06;27.26
75088;HTU21D;63664;44.868;40.600;2023-06-24T12:29:59;34.07;27.38
75088;HTU21D;63664;44.868;40.600;2023-06-24T12:32:34;34.01;27.42
75088;HTU21D;63664;44.868;40.600;2023-06-24T12:35:01;34.07;27.39
75088;HTU21D;63664;44.868;40.600;2023-06-24T12:37:30;34.07;27.13
75088;HTU21D;63664;44.868;40.600;2023-06-24T12:39:58;33.99;27.42
75088;HTU21D;63664;44.868;40.600;2023-06-24T12:42:27;33.94;27.37
75088;HTU21D;63664;44.868;40.600;2023-06-24T12:44:53;34.03;27.46
75088;HTU21D;63664;44.868;40.600;2023-06-24T12:47:22;34.09;27.81
75088;HTU21D;63664;44.868;40.600;2023-06-24T12:49:49;33.93;27.87
75088;HTU21D;63664;44.868;40.600;2023-06-24T12:52:15;33.78;27.81
75088;HTU21D;63664;44.868;40.600;2023-06-24T12:54:42;33.72;27.48
75088;HTU21D;63664;44.868;40.600;2023-06-24T12:57:08;33.63;27.59
75088;HTU21D;63664;44.868;40.600;2023-06-24T12:59:39;33.67;27.33
75088;HTU21D;63664;44.868;40.600;2023-06-24T13:02:07;33.72;27.45
75088;HTU21D;63664;44.868;40.600;2023-06-24T13:04:34;33.78;27.56
75088;HTU21D;63664;44.868;40.600;2023-06-24T13:07:00;33.88;27.33
75088;HTU21D;63664;44.868;40.600;2023-06-24T13:09:27;33.89;27.57
75088;HTU21D;63664;44.868;40.600;2023-06-24T13:11:53;33.91;27.68
75088;HTU21D;63664;44.868;40.600;2023-06-24T13:14:19;33.91;27.62
75088;HTU21D;63664;44.868;40.600;2023-06-24T13:16:54;33.76;27.54
75088;HTU21D;63664;44.868;40.600;2023-06-24T13:19:21;33.66;27.39
75088;HTU21D;63664;44.868;40.600;2023-06-24T13:21:50;33.66;27.61
75088;HTU21D;63664;44.868;40.600;2023-06-24T13:24:21;33.77;27.38
75088;HTU21D;63664;44.868;40.600;2023-06-24T13:26:49;33.78;27.43
75088;HTU21D;63664;44.868;40.600;2023-06-24T13:29:18;33.58;27.52
75088;HTU21D;63664;44.868;40.600;2023-06-24T13:31:46;33.41;27.82
75088;HTU21D;63664;44.868;40.600;2023-06-24T13:34:12;33.34;27.74
75088;HTU21D;63664;44.868;40.600;2023-06-24T13:36:39;33.38;27.81
75088;HTU21D;63664;44.868;40.600;2023-06-24T13:39:08;33.46;27.43
75088;HTU21D;63664;44.868;40.600;2023-06-24T13:41:37;33.48;27.68
75088;HTU21D;63664;44.868;40.600;2023-06-24T13:44:04;33.50;27.54
75088;HTU21D;63664;44.868;40.600;2023-06-24T13:46:31;33.47;27.55
75088;HTU21D;63664;44.868;40.600;2023-06-24T13:49:00;33.43;27.35
75088;HTU21D;63664;44.868;40.600;2023-06-24T13:51:27;33.31;27.75
75088;HTU21D;63664;44.868;40.600;2023-06-24T13:53:54;33.28;27.96
75088;HTU21D;63664;44.868;40.600;2023-06-24T13:56:22;33.27;28.07
75088;HTU21D;63664;44.868;40.600;2023-06-24T13:58:53;33.20;27.95
75088;HTU21D;63664;44.868;40.600;2023-06-24T14:01:20;33.18;27.92
75088;HTU21D;63664;44.868;40.600;2023-06-24T14:03:47;33.08;28.01
75088;HTU21D;63664;44.868;40.600;2023-06-24T14:06:17;33.08;28.12
75088;HTU21D;63664;44.868;40.600;2023-06-24T14:08:47;32.98;28.36
75088;HTU21D;63664;44.868;40.600;2023-06-24T14:11:20;32.98;28.58
75088;HTU21D;63664;44.868;40.600;2023-06-24T14:13:48;33.02;28.65
75088;HTU21D;63664;44.868;40.600;2023-06-24T14:16:14;32.96;28.61
75088;HTU21D;63664;44.868;40.600;2023-06-24T14:18:41;32.88;28.74
75088;HTU21D;63664;44.868;40.600;2023-06-24T14:21:10;32.77;28.74
75088;HTU21D;63664;44.868;40.600;2023-06-24T14:23:36;32.77;29.07
75088;HTU21D;63664;44.868;40.600;2023-06-24T14:26:03;32.57;29.46
75088;HTU21D;63664;44.868;40.600;2023-06-24T14:28:30;32.46;29.39
75088;HTU21D;63664;44.868;40.600;2023-06-24T14:30:56;32.32;29.74
75088;HTU21D;63664;44.868;40.600;2023-06-24T14:33:25;32.22;29.84
75088;HTU21D;63664;44.868;40.600;2023-06-24T14:35:51;32.16;29.91
75088;HTU21D;63664;44.868;40.600;2023-06-24T14:38:18;32.12;30.21
75088;HTU21D;63664;44.868;40.600;2023-06-24T14:40:44;32.05;30.20
75088;HTU21D;63664;44.868;40.600;2023-06-24T14:43:10;31.93;30.35
75088;HTU21D;63664;44.868;40.600;2023-06-24T14:45:39;31.79;30.43
75088;HTU21D;63664;44.868;40.600;2023-06-24T14:48:05;31.57;30.80
75088;HTU21D;63664;44.868;40.600;2023-06-24T14:50:32;31.38;30.93
75088;HTU21D;63664;44.868;40.600;2023-06-24T14:52:58;31.21;31.16
75088;HTU21D;63664;44.868;40.600;2023-06-24T14:55:29;31.09;31.26
75088;HTU21D;63664;44.868;40.600;2023-06-24T14:57:56;31.04;31.52
75088;HTU21D;63664;44.868;40.600;2023-06-24T15:00:22;30.97;31.57
75088;HTU21D;63664;44.868;40.600;2023-06-24T15:02:48;30.89;31.72
75088;HTU21D;63664;44.868;40.600;2023-06-24T15:05:14;30.80;31.93
75088;HTU21D;63664;44.868;40.600;2023-06-24T15:07:41;30.62;32.04
75088;HTU21D;63664;44.868;40.600;2023-06-24T15:10:07;30.42;32.15
75088;HTU21D;63664;44.868;40.600;2023-06-24T15:12:34;30.30;32.41
75088;HTU21D;63664;44.868;40.600;2023-06-24T15:15:03;30.20;32.59
75088;HTU21D;63664;44.868;40.600;2023-06-24T15:17:30;30.11;32.83
75088;HTU21D;63664;44.868;40.600;2023-06-24T15:19:56;30.00;32.96
75088;HTU21D;63664;44.868;40.600;2023-06-24T15:22:22;29.92;33.18
75088;HTU21D;63664;44.868;40.600;2023-06-24T15:24:49;29.87;33.41
75088;HTU21D;63664;44.868;40.600;2023-06-24T15:27:15;29.78;33.55